Skip Navigation Links Skip Navigation Links

Current Weather

Mount Pleasant Muni, Mount Pleasant, Iowa

For information only: do not use for flight planning or navigation.
Latest weather
Observation time Monday, October 18, 2021 3:55 PM CDT
Local time Monday, October 18, 2021 4:12 PM CDT
Flight conditions Visual Meteorological Conditions
Winds
Wind direction South-Southwest (210°)
Wind speed 10 mph
Wind gusting to 16 mph
Visibility 10 mi.
Sky condition
Ceiling unlimited
Sky clear
Temperature 75°F
Dewpoint 46°F
Altimeter 30.03 in.Hg
Derived measurements
Relative humidity 36%
Density altitude 1810 ft.
Remarks
Fully automated report.
Automated weather observing station with precipitation discriminator.
METAR KMPZ 182055Z AUTO 21009G14KT 10SM CLR 24/08 A3003 RMK AO2

Settings

Location code

InnerDrive.Weather 4.0.6770.0 Release CLR 4.0.30319.42000
Copyright ©2018 Inner Drive Technology. All rights reserved. Portions Copyright ©1986-2018 David Braverman.

Find weather

Site navigation


Skip Navigation Links

Place info

Page info

PayPal - The safer, easier way to pay online!

Return home.

Copyright ©2021 Inner Drive Technology. Purveyors of fine, hand-crafted computer software. Page printed 2021-10-18T21:12:37 UTC.